Terminal Aerodrome Forecast
Issued by NWS Upton, NY

Home | Current Version | Previous Version | Text Only | Print | Product List | Glossary On
Versions: 1 2 3 4 5 6 7 8 9 10 11 12 13 14 15 16 17 18 19 20 21 22 23 24 25 26 27 28 29 30 31 32 33 34
000
FTUS41 KOKX 120600 AAB
TAFJFK
TAF AMD
KJFK 120615Z 1206/1312 VRB02KT 3SM BR BKN002
     FM120700 VRB02KT P6SM FEW002 FEW250
      TEMPO 1207/1211 1SM BR BKN002
     FM121400 18007KT P6SM FEW250
     FM121800 17013KT P6SM FEW250
     FM130300 19008KT P6SM FEW150 BKN250=

USA.gov is the U.S. government's official web portal to all federal, state and local government web resources and services.